Time;durP1;ratioP1;P1;durP2;ratioP2;P2;SDS_P1;SDS_P2;PMS_P1;PMS_P2;Temp;Humidity;BMP_temperature;BMP_pressure;BME280_temperature;BME280_humidity;BME280_pressure;Samples;Min_cycle;Max_cycle;Signal;HPM_P1;HPM_P2
2022/05/21 00:00:16;;;;;;;9.67;5.40;;;;;;;;;;5003139;28;20403;-85
2022/05/21 00:02:42;;;;;;;11.73;6.13;;;;;;;;;;5002954;28;21039;-84
2022/05/21 00:05:09;;;;;;;9.90;5.60;;;;;;;;;;5004716;28;20421;-84
2022/05/21 00:07:35;;;;;;;10.37;5.67;;;;;;;;;;5003614;28;20424;-84
2022/05/21 00:10:02;;;;;;;12.20;5.30;;;;;;;;;;5003484;28;20519;-85
2022/05/21 00:12:28;;;;;;;8.73;6.50;;;;;;;;;;5003025;28;20490;-85
2022/05/21 00:14:55;;;;;;;10.23;5.97;;;;;;;;;;5001345;28;20451;-85
2022/05/21 00:17:21;;;;;;;11.17;6.27;;;;;;;;;;5001050;28;20749;-84
2022/05/21 00:19:50;;;;;;;12.47;7.37;;;;;;;;;;5002112;28;20943;-85
2022/05/21 00:22:16;;;;;;;7.73;5.87;;;;;;;;;;4985997;28;20456;-85
2022/05/21 00:24:43;;;;;;;11.10;6.20;;;;;;;;;;4983089;28;20432;-85
2022/05/21 00:27:09;;;;;;;12.50;6.93;;;;;;;;;;5000775;28;20407;-85
2022/05/21 00:29:35;;;;;;;9.97;6.03;;;;;;;;;;4983170;28;20416;-84
2022/05/21 00:32:02;;;;;;;9.17;6.40;;;;;;;;;;4983219;28;20440;-84
2022/05/21 00:34:28;;;;;;;9.30;6.77;;;;;;;;;;4999973;28;20483;-85
2022/05/21 00:36:55;;;;;;;8.57;6.07;;;;;;;;;;5000710;28;20407;-85
2022/05/21 00:39:21;;;;;;;11.10;6.43;;;;;;;;;;5004417;28;20488;-84
2022/05/21 00:41:47;;;;;;;11.73;7.03;;;;;;;;;;5008541;28;20416;-85
2022/05/21 00:44:13;;;;;;;9.87;7.20;;;;;;;;;;4986945;28;20468;-83
2022/05/21 00:46:40;;;;;;;8.10;5.67;;;;;;;;;;5003945;28;20408;-86
2022/05/21 00:49:13;;;;;;;8.30;5.53;;;;;;;;;;5004352;28;20437;-84
2022/05/21 00:51:45;;;;;;;8.10;5.97;;;;;;;;;;5003830;28;20400;-84
2022/05/21 00:54:12;;;;;;;10.00;5.60;;;;;;;;;;5005913;28;20423;-84
2022/05/21 00:56:43;;;;;;;11.83;6.10;;;;;;;;;;5004167;28;20420;-84
2022/05/21 01:01:56;;;;;;;6.80;5.70;;;;;;;;;;5004254;28;20392;-84
2022/05/21 01:04:22;;;;;;;9.00;4.83;;;;;;;;;;5003222;28;20463;-84
2022/05/21 01:06:48;;;;;;;6.73;5.13;;;;;;;;;;5004198;28;20407;-83
2022/05/21 01:09:14;;;;;;;9.07;4.70;;;;;;;;;;5003939;28;20439;-84
2022/05/21 01:11:40;;;;;;;6.03;4.83;;;;;;;;;;5004884;28;20432;-84
2022/05/21 01:14:09;;;;;;;10.90;5.83;;;;;;;;;;4984766;28;20447;-84
2022/05/21 01:16:35;;;;;;;11.40;5.90;;;;;;;;;;4983110;28;20571;-84
2022/05/21 01:19:05;;;;;;;6.60;5.70;;;;;;;;;;4983373;28;20427;-84
2022/05/21 01:21:31;;;;;;;7.57;6.10;;;;;;;;;;4999930;28;20439;-86
2022/05/21 01:23:57;;;;;;;9.47;6.30;;;;;;;;;;4982639;28;21003;-85
2022/05/21 01:26:23;;;;;;;8.87;6.77;;;;;;;;;;5001211;28;20414;-84
2022/05/21 01:28:53;;;;;;;12.73;7.20;;;;;;;;;;4988085;28;20889;-85
2022/05/21 01:31:19;;;;;;;11.10;7.00;;;;;;;;;;5000572;28;20415;-85
2022/05/21 01:33:46;;;;;;;7.53;6.17;;;;;;;;;;4983367;28;20478;-84
2022/05/21 01:36:14;;;;;;;19.07;6.17;;;;;;;;;;5000190;28;20420;-85
2022/05/21 01:38:41;;;;;;;8.67;7.27;;;;;;;;;;4982796;28;20921;-85
2022/05/21 01:41:10;;;;;;;10.73;6.83;;;;;;;;;;4999505;28;20404;-86
2022/05/21 01:46:22;;;;;;;10.30;7.50;;;;;;;;;;5015163;28;20409;-86
2022/05/21 01:48:48;;;;;;;11.00;6.30;;;;;;;;;;5001873;28;20522;-86
2022/05/21 01:51:14;;;;;;;9.83;6.47;;;;;;;;;;5019111;28;20844;-86
2022/05/21 01:53:40;;;;;;;10.13;7.20;;;;;;;;;;5018957;28;20447;-86
2022/05/21 01:56:08;;;;;;;8.90;6.40;;;;;;;;;;5002104;28;20407;-86
2022/05/21 01:58:34;;;;;;;8.50;7.27;;;;;;;;;;5001429;28;20403;-86
2022/05/21 02:01:00;;;;;;;8.33;7.13;;;;;;;;;;5001511;28;20408;-86
2022/05/21 02:03:26;;;;;;;10.63;6.17;;;;;;;;;;5001270;28;20521;-86
2022/05/21 02:05:53;;;;;;;8.13;6.00;;;;;;;;;;5018879;28;20411;-86
2022/05/21 02:08:19;;;;;;;7.80;5.67;;;;;;;;;;5022585;28;20454;-86
2022/05/21 02:10:46;;;;;;;11.13;6.23;;;;;;;;;;5023439;28;20930;-86
2022/05/21 02:13:17;;;;;;;6.97;6.20;;;;;;;;;;5007371;28;20432;-85
2022/05/21 02:15:43;;;;;;;13.13;7.57;;;;;;;;;;5027796;28;20408;-85
2022/05/21 02:18:09;;;;;;;9.93;7.47;;;;;;;;;;5030551;28;20911;-84
2022/05/21 02:20:35;;;;;;;7.73;6.93;;;;;;;;;;5029866;28;20407;-82
2022/05/21 02:23:01;;;;;;;10.63;6.83;;;;;;;;;;5012596;28;20505;-84
2022/05/21 02:25:27;;;;;;;6.60;5.80;;;;;;;;;;5012790;28;20408;-85
2022/05/21 02:27:53;;;;;;;8.40;6.63;;;;;;;;;;5014165;28;20403;-83
2022/05/21 02:30:20;;;;;;;10.23;6.60;;;;;;;;;;5013264;28;20871;-83
2022/05/21 02:32:46;;;;;;;7.03;6.10;;;;;;;;;;5013714;28;20421;-85
2022/05/21 02:35:13;;;;;;;9.27;7.40;;;;;;;;;;5008100;28;20541;-86
2022/05/21 02:40:34;;;;;;;7.43;6.67;;;;;;;;;;4957491;28;20559;-84
2022/05/21 02:43:00;;;;;;;9.70;6.40;;;;;;;;;;5028925;28;20485;-84
2022/05/21 02:45:27;;;;;;;10.37;7.23;;;;;;;;;;5030110;28;20404;-84
2022/05/21 02:47:54;;;;;;;10.97;7.53;;;;;;;;;;5011728;28;20422;-84
2022/05/21 02:50:21;;;;;;;7.80;6.57;;;;;;;;;;5029322;28;20569;-84
2022/05/21 02:52:47;;;;;;;7.33;6.33;;;;;;;;;;5011894;28;20458;-85
2022/05/21 02:55:14;;;;;;;11.60;8.87;;;;;;;;;;5011969;28;21013;-84
2022/05/21 02:57:40;;;;;;;8.33;6.20;;;;;;;;;;5029419;28;20422;-85
2022/05/21 03:00:10;;;;;;;7.53;6.73;;;;;;;;;;5011573;28;20422;-85
2022/05/21 03:02:36;;;;;;;9.57;6.87;;;;;;;;;;5024026;28;20454;-84
2022/05/21 03:05:03;;;;;;;10.90;6.97;;;;;;;;;;5007310;28;20431;-81
2022/05/21 03:07:30;;;;;;;9.70;7.10;;;;;;;;;;5007541;28;20446;-83
2022/05/21 03:12:40;;;;;;;8.17;7.30;;;;;;;;;;5025682;28;20459;-84
2022/05/21 03:15:07;;;;;;;9.53;6.37;;;;;;;;;;5007545;28;20431;-84
2022/05/21 03:17:33;;;;;;;7.03;6.30;;;;;;;;;;5008373;28;20526;-83
2022/05/21 03:19:59;;;;;;;10.00;6.40;;;;;;;;;;5023452;28;20416;-85
2022/05/21 03:22:25;;;;;;;7.50;6.80;;;;;;;;;;5006430;28;20486;-85
2022/05/21 03:24:51;;;;;;;9.13;6.57;;;;;;;;;;5026355;28;20461;-85
2022/05/21 03:27:17;;;;;;;7.70;6.10;;;;;;;;;;5026129;28;20411;-84
2022/05/21 03:29:43;;;;;;;8.93;7.07;;;;;;;;;;5008556;28;20432;-86
2022/05/21 03:32:09;;;;;;;9.23;5.70;;;;;;;;;;5007595;28;20414;-85
2022/05/21 03:34:36;;;;;;;9.37;6.17;;;;;;;;;;5025881;28;20450;-85
2022/05/21 03:37:02;;;;;;;6.60;5.83;;;;;;;;;;5008025;28;20447;-85
2022/05/21 03:39:29;;;;;;;7.07;5.90;;;;;;;;;;5021413;28;20478;-85
2022/05/21 03:41:55;;;;;;;10.20;5.87;;;;;;;;;;5022240;28;20400;-85
2022/05/21 03:44:21;;;;;;;7.30;6.53;;;;;;;;;;5020666;28;20911;-85
2022/05/21 03:46:47;;;;;;;7.37;6.00;;;;;;;;;;5003325;28;20480;-85
2022/05/21 03:49:13;;;;;;;7.03;5.50;;;;;;;;;;5003584;28;20407;-84
2022/05/21 03:51:39;;;;;;;6.70;5.57;;;;;;;;;;5004241;28;20414;-85
2022/05/21 03:54:05;;;;;;;9.30;6.10;;;;;;;;;;5022040;28;20430;-85
2022/05/21 03:56:31;;;;;;;11.20;6.40;;;;;;;;;;5008310;28;20435;-85
2022/05/21 03:58:57;;;;;;;6.50;5.00;;;;;;;;;;5024590;28;20803;-84
2022/05/21 04:01:23;;;;;;;8.23;6.33;;;;;;;;;;5022474;28;20482;-85
2022/05/21 04:03:50;;;;;;;7.40;5.53;;;;;;;;;;5019450;28;20946;-83
2022/05/21 04:06:17;;;;;;;9.60;7.60;;;;;;;;;;4996068;28;20426;-84
2022/05/21 04:08:43;;;;;;;7.97;5.90;;;;;;;;;;5010720;28;20426;-83
2022/05/21 04:11:09;;;;;;;9.90;6.67;;;;;;;;;;5000978;28;20911;-84
2022/05/21 04:13:35;;;;;;;8.53;6.67;;;;;;;;;;5001218;28;20501;-84
2022/05/21 04:16:01;;;;;;;6.07;4.93;;;;;;;;;;5001800;28;20418;-84
2022/05/21 04:18:27;;;;;;;6.87;5.23;;;;;;;;;;5019367;28;20411;-85
2022/05/21 04:20:53;;;;;;;6.80;5.30;;;;;;;;;;5019206;28;20768;-84
2022/05/21 04:23:19;;;;;;;8.30;6.17;;;;;;;;;;5019243;28;21008;-85
2022/05/21 04:25:46;;;;;;;6.57;5.40;;;;;;;;;;5019574;28;20879;-85
2022/05/21 04:28:13;;;;;;;8.40;6.10;;;;;;;;;;5002316;28;20422;-83
2022/05/21 04:30:39;;;;;;;6.80;5.50;;;;;;;;;;5019225;28;20500;-85
2022/05/21 04:33:05;;;;;;;7.90;5.73;;;;;;;;;;5001837;28;20844;-84
2022/05/21 04:38:16;;;;;;;10.00;5.77;;;;;;;;;;5046705;28;20613;-83
2022/05/21 04:40:42;;;;;;;6.50;5.30;;;;;;;;;;5067686;28;20413;-83
2022/05/21 04:43:09;;;;;;;8.67;4.70;;;;;;;;;;5070140;28;20460;-83
2022/05/21 04:45:35;;;;;;;6.83;5.50;;;;;;;;;;5066945;28;20429;-84
2022/05/21 04:48:05;;;;;;;7.67;5.07;;;;;;;;;;5058422;28;20409;-82
2022/05/21 04:50:31;;;;;;;9.43;4.90;;;;;;;;;;5055105;28;20421;-82
2022/05/21 04:52:57;;;;;;;7.13;4.87;;;;;;;;;;5060671;28;20449;-81
2022/05/21 04:55:24;;;;;;;5.87;4.50;;;;;;;;;;5076257;28;20409;-81
2022/05/21 04:57:50;;;;;;;7.20;4.70;;;;;;;;;;5076623;28;20441;-82
2022/05/21 05:00:16;;;;;;;6.13;4.27;;;;;;;;;;5066973;28;20409;-83
2022/05/21 05:02:42;;;;;;;6.50;4.90;;;;;;;;;;5067029;28;20426;-83
2022/05/21 05:05:13;;;;;;;6.00;4.13;;;;;;;;;;5066363;28;20465;-83
2022/05/21 05:07:39;;;;;;;14.50;4.33;;;;;;;;;;5066325;28;20392;-84
2022/05/21 05:10:06;;;;;;;6.70;4.37;;;;;;;;;;5049262;28;20409;-83
2022/05/21 05:12:32;;;;;;;6.03;4.80;;;;;;;;;;5066586;28;20468;-84
2022/05/21 05:14:58;;;;;;;4.80;3.90;;;;;;;;;;5066056;28;20839;-84
2022/05/21 05:17:24;;;;;;;5.03;3.50;;;;;;;;;;5066360;28;20409;-83
2022/05/21 05:19:51;;;;;;;5.57;3.13;;;;;;;;;;5061128;28;20464;-83
2022/05/21 05:22:20;;;;;;;5.50;3.27;;;;;;;;;;5057115;28;20406;-82
2022/05/21 05:24:48;;;;;;;4.93;3.50;;;;;;;;;;5057571;28;20937;-83
2022/05/21 05:27:14;;;;;;;4.77;3.30;;;;;;;;;;5056942;28;20416;-83
2022/05/21 05:29:40;;;;;;;4.77;3.43;;;;;;;;;;5040008;28;20497;-81
2022/05/21 05:32:07;;;;;;;6.53;3.77;;;;;;;;;;5056572;28;20402;-82
2022/05/21 05:34:33;;;;;;;5.50;3.20;;;;;;;;;;5056360;28;20449;-82
2022/05/21 05:37:01;;;;;;;4.17;3.17;;;;;;;;;;5057264;28;20424;-83
2022/05/21 05:39:27;;;;;;;4.23;2.70;;;;;;;;;;5055912;28;20831;-81
2022/05/21 05:41:54;;;;;;;4.40;3.00;;;;;;;;;;5057157;28;20393;-83
2022/05/21 05:44:21;;;;;;;3.80;2.90;;;;;;;;;;5060779;28;20429;-83
2022/05/21 05:46:47;;;;;;;5.00;3.27;;;;;;;;;;5061087;28;20466;-82
2022/05/21 05:49:14;;;;;;;5.10;2.90;;;;;;;;;;5061186;28;20455;-82
2022/05/21 05:51:40;;;;;;;4.20;3.00;;;;;;;;;;5061148;28;20409;-83
2022/05/21 05:54:09;;;;;;;4.27;3.50;;;;;;;;;;5041577;28;20981;-82
2022/05/21 05:56:36;;;;;;;3.30;3.00;;;;;;;;;;5059881;28;20426;-82
2022/05/21 06:01:46;;;;;;;3.63;2.40;;;;;;;;;;5060251;28;20392;-82
2022/05/21 06:04:13;;;;;;;4.93;2.90;;;;;;;;;;5058927;28;20960;-83
2022/05/21 06:06:39;;;;;;;6.10;3.03;;;;;;;;;;5059847;28;20412;-82
2022/05/21 06:09:05;;;;;;;3.83;3.00;;;;;;;;;;5060306;28;20402;-82
2022/05/21 06:11:37;;;;;;;3.60;3.00;;;;;;;;;;5060006;28;20825;-83
2022/05/21 06:14:03;;;;;;;3.90;3.00;;;;;;;;;;5060964;28;20437;-83
2022/05/21 06:16:29;;;;;;;5.20;3.83;;;;;;;;;;5061726;28;20762;-83
2022/05/21 06:18:56;;;;;;;5.77;3.43;;;;;;;;;;5061457;28;20775;-82
2022/05/21 06:21:22;;;;;;;3.33;2.77;;;;;;;;;;5059966;28;20398;-82
2022/05/21 06:23:48;;;;;;;3.43;2.70;;;;;;;;;;5059708;28;20405;-82
2022/05/21 06:26:14;;;;;;;4.30;2.13;;;;;;;;;;5060567;28;20425;-82
2022/05/21 06:28:40;;;;;;;4.83;2.57;;;;;;;;;;5043108;28;20467;-82
2022/05/21 06:31:06;;;;;;;3.50;2.00;;;;;;;;;;5061454;28;20444;-81
2022/05/21 06:33:32;;;;;;;4.00;2.13;;;;;;;;;;5058684;28;20492;-83
2022/05/21 06:36:04;;;;;;;5.37;2.53;;;;;;;;;;5039907;28;20453;-82
2022/05/21 06:38:31;;;;;;;3.70;2.60;;;;;;;;;;5058641;28;20444;-83
2022/05/21 06:40:57;;;;;;;6.00;2.60;;;;;;;;;;5060303;28;20426;-84
2022/05/21 06:43:23;;;;;;;3.50;2.63;;;;;;;;;;5060192;28;20416;-82
2022/05/21 06:45:49;;;;;;;3.50;3.00;;;;;;;;;;5058577;28;20448;-83
2022/05/21 06:48:15;;;;;;;3.30;2.30;;;;;;;;;;5060384;28;20416;-81
2022/05/21 06:50:41;;;;;;;3.63;2.20;;;;;;;;;;5066402;28;20405;-82
2022/05/21 06:53:07;;;;;;;4.03;2.33;;;;;;;;;;5068121;28;20475;-80
2022/05/21 06:55:34;;;;;;;3.53;2.13;;;;;;;;;;5072420;28;20956;-82
2022/05/21 06:58:00;;;;;;;3.07;2.03;;;;;;;;;;5069782;28;20402;-82
2022/05/21 07:00:26;;;;;;;4.73;2.47;;;;;;;;;;5069301;28;20433;-83
2022/05/21 07:02:55;;;;;;;4.30;2.23;;;;;;;;;;5069191;28;20493;-83
2022/05/21 07:08:15;;;;;;;4.00;2.37;;;;;;;;;;5069466;28;20390;-83
2022/05/21 07:10:41;;;;;;;2.93;1.90;;;;;;;;;;5068040;28;20845;-83
2022/05/21 07:13:07;;;;;;;3.87;2.33;;;;;;;;;;5063750;28;20456;-82
2022/05/21 07:15:33;;;;;;;4.13;2.90;;;;;;;;;;5059891;28;20418;-82
2022/05/21 07:18:00;;;;;;;4.57;2.57;;;;;;;;;;5062293;28;20425;-82
2022/05/21 07:20:26;;;;;;;3.07;2.20;;;;;;;;;;5063352;28;20402;-83
2022/05/21 07:22:52;;;;;;;3.50;2.20;;;;;;;;;;5067648;28;20420;-82
2022/05/21 07:25:21;;;;;;;3.57;2.10;;;;;;;;;;5070043;28;20425;-82
2022/05/21 07:27:47;;;;;;;3.83;2.47;;;;;;;;;;5068568;28;20405;-83
2022/05/21 07:30:14;;;;;;;4.50;2.30;;;;;;;;;;5065917;28;20412;-82
2022/05/21 07:32:41;;;;;;;4.23;2.40;;;;;;;;;;5063914;28;20841;-83
2022/05/21 07:35:09;;;;;;;3.40;2.27;;;;;;;;;;5046156;28;20464;-82
2022/05/21 07:37:35;;;;;;;3.77;2.70;;;;;;;;;;5048042;28;20406;-83
2022/05/21 07:40:02;;;;;;;8.23;2.57;;;;;;;;;;5062859;28;20394;-84
2022/05/21 07:42:28;;;;;;;4.80;2.50;;;;;;;;;;5062781;28;20795;-83
2022/05/21 07:44:54;;;;;;;5.83;2.23;;;;;;;;;;5044649;28;20519;-83
2022/05/21 07:47:23;;;;;;;3.77;1.73;;;;;;;;;;5066907;28;20422;-81
2022/05/21 07:49:51;;;;;;;3.73;2.23;;;;;;;;;;5063580;28;20443;-83
2022/05/21 07:52:20;;;;;;;3.93;2.10;;;;;;;;;;5048803;28;20413;-82
2022/05/21 07:54:46;;;;;;;2.83;2.20;;;;;;;;;;5062535;28;20409;-83
2022/05/21 07:57:12;;;;;;;3.10;2.00;;;;;;;;;;5060134;28;20570;-83
2022/05/21 07:59:38;;;;;;;3.80;2.10;;;;;;;;;;5059112;28;20910;-83
2022/05/21 08:02:05;;;;;;;4.17;2.20;;;;;;;;;;5057221;28;20464;-82
2022/05/21 08:04:31;;;;;;;6.53;2.40;;;;;;;;;;5040278;28;20844;-82
2022/05/21 08:06:57;;;;;;;4.17;2.03;;;;;;;;;;5059938;28;20413;-83
2022/05/21 08:09:23;;;;;;;7.57;2.23;;;;;;;;;;5061078;28;20772;-82
2022/05/21 08:11:50;;;;;;;5.60;2.30;;;;;;;;;;5054618;28;20982;-83
2022/05/21 08:14:16;;;;;;;4.37;2.53;;;;;;;;;;5057049;28;20823;-83
2022/05/21 08:16:42;;;;;;;5.13;2.47;;;;;;;;;;5058089;28;20414;-83
2022/05/21 08:19:08;;;;;;;2.83;2.03;;;;;;;;;;5062079;28;20402;-84
2022/05/21 08:21:34;;;;;;;3.07;2.37;;;;;;;;;;5060702;28;20402;-84
2022/05/21 08:26:57;;;;;;;3.03;2.10;;;;;;;;;;5059731;28;20384;-83
2022/05/21 08:29:23;;;;;;;3.40;2.00;;;;;;;;;;5060613;28;20756;-83
2022/05/21 08:31:50;;;;;;;3.10;2.20;;;;;;;;;;5064010;28;20469;-83
2022/05/21 08:34:16;;;;;;;2.50;1.80;;;;;;;;;;5070214;28;20471;-82
2022/05/21 08:36:42;;;;;;;3.57;1.67;;;;;;;;;;5069979;28;20425;-83
2022/05/21 08:39:09;;;;;;;4.03;1.57;;;;;;;;;;5065853;28;20471;-85
2022/05/21 08:41:36;;;;;;;4.27;2.10;;;;;;;;;;5060761;28;20425;-83
2022/05/21 08:44:05;;;;;;;5.23;2.00;;;;;;;;;;5060421;28;20787;-84
2022/05/21 08:46:49;;;;;;;4.50;2.17;;;;;;;;;;5059184;28;20444;-83
2022/05/21 08:49:22;;;;;;;3.90;1.93;;;;;;;;;;5060366;28;20467;-83
2022/05/21 08:51:50;;;;;;;3.70;1.77;;;;;;;;;;5059997;28;20898;-83
2022/05/21 08:54:19;;;;;;;2.40;1.70;;;;;;;;;;5059132;28;20450;-83
2022/05/21 08:56:45;;;;;;;2.33;1.67;;;;;;;;;;5059473;28;20401;-83
2022/05/21 08:59:12;;;;;;;3.67;2.10;;;;;;;;;;5041522;28;20405;-83
2022/05/21 09:01:39;;;;;;;3.10;2.00;;;;;;;;;;5058535;28;20398;-83
2022/05/21 09:04:05;;;;;;;3.37;1.77;;;;;;;;;;5060772;28;20921;-81
2022/05/21 09:06:38;;;;;;;2.47;1.30;;;;;;;;;;5045690;28;20414;-83
2022/05/21 09:09:22;;;;;;;2.53;1.30;;;;;;;;;;5061987;28;20456;-83
2022/05/21 09:11:50;;;;;;;9.13;1.50;;;;;;;;;;5060959;28;20790;-83
2022/05/21 09:14:21;;;;;;;2.17;1.10;;;;;;;;;;5042114;28;20479;-84
2022/05/21 09:16:56;;;;;;;2.10;1.20;;;;;;;;;;5059243;28;20990;-83
2022/05/21 09:19:23;;;;;;;2.27;1.30;;;;;;;;;;5059720;28;20423;-83
2022/05/21 09:21:50;;;;;;;2.50;1.47;;;;;;;;;;5060121;28;20398;-84
2022/05/21 09:24:35;;;;;;;3.40;1.60;;;;;;;;;;5042132;28;20401;-83
2022/05/21 09:27:01;;;;;;;2.43;1.23;;;;;;;;;;5059414;28;20755;-83
2022/05/21 09:29:28;;;;;;;2.00;1.20;;;;;;;;;;5061354;28;20414;-84
2022/05/21 09:31:56;;;;;;;7.27;1.60;;;;;;;;;;5042458;28;20402;-83
2022/05/21 09:34:24;;;;;;;1.90;1.30;;;;;;;;;;5058483;28;20853;-83
2022/05/21 09:36:51;;;;;;;2.63;1.30;;;;;;;;;;5059453;28;20378;-83
2022/05/21 09:39:33;;;;;;;6.10;1.57;;;;;;;;;;5059892;28;20402;-83
2022/05/21 09:42:13;;;;;;;3.17;1.23;;;;;;;;;;5059764;28;20397;-83
2022/05/21 09:47:29;;;;;;;4.77;1.80;;;;;;;;;;5059616;28;20451;-83
2022/05/21 09:50:00;;;;;;;2.80;1.47;;;;;;;;;;5059477;28;20401;-83
2022/05/21 09:52:29;;;;;;;3.20;1.33;;;;;;;;;;5059819;28;20401;-83
2022/05/21 09:54:55;;;;;;;2.13;1.30;;;;;;;;;;5058920;28;20450;-83
2022/05/21 09:57:27;;;;;;;2.17;1.30;;;;;;;;;;5060117;28;20739;-82
2022/05/21 10:00:06;;;;;;;2.30;1.40;;;;;;;;;;5059944;28;20469;-82
2022/05/21 10:02:39;;;;;;;2.10;1.20;;;;;;;;;;5059403;28;20983;-82
2022/05/21 10:05:08;;;;;;;4.53;1.60;;;;;;;;;;5041537;28;20520;-82
2022/05/21 10:11:00;;;;;;;1.80;1.23;;;;;;;;;;5060142;28;20795;-82
2022/05/21 10:13:26;;;;;;;3.80;1.53;;;;;;;;;;5040719;28;20503;-83
2022/05/21 10:16:18;;;;;;;2.20;1.10;;;;;;;;;;5059538;28;20417;-83
2022/05/21 10:18:44;;;;;;;1.97;1.03;;;;;;;;;;5060005;28;20780;-82
2022/05/21 10:21:23;;;;;;;2.27;1.10;;;;;;;;;;5059834;28;20468;-83
2022/05/21 10:23:51;;;;;;;1.50;1.00;;;;;;;;;;5059407;28;20405;-83
2022/05/21 10:26:17;;;;;;;1.60;1.10;;;;;;;;;;5062826;28;20425;-80
2022/05/21 10:28:43;;;;;;;5.33;1.13;;;;;;;;;;5069196;28;20487;-81
2022/05/21 10:31:20;;;;;;;2.13;1.10;;;;;;;;;;5070383;28;20779;-82
2022/05/21 10:33:55;;;;;;;3.10;1.10;;;;;;;;;;5064502;28;20533;-82
2022/05/21 10:36:21;;;;;;;1.87;1.10;;;;;;;;;;5041041;22;20490;-83
2022/05/21 10:38:53;;;;;;;4.93;1.30;;;;;;;;;;4996039;28;20426;-84
2022/05/21 10:41:46;;;;;;;2.03;1.10;;;;;;;;;;5004851;28;20401;-84
2022/05/21 10:44:31;;;;;;;2.47;0.90;;;;;;;;;;5004319;28;20792;-84
2022/05/21 10:47:04;;;;;;;1.90;1.47;;;;;;;;;;5003640;28;20416;-84
2022/05/21 10:49:39;;;;;;;3.33;1.13;;;;;;;;;;4988294;28;20404;-84
2022/05/21 10:52:20;;;;;;;4.80;1.20;;;;;;;;;;5006029;28;20391;-84
2022/05/21 10:55:01;;;;;;;2.23;1.10;;;;;;;;;;5005516;28;20869;-83
2022/05/21 10:57:27;;;;;;;2.10;1.20;;;;;;;;;;5006934;28;20405;-84
2022/05/21 10:59:57;;;;;;;1.97;1.10;;;;;;;;;;5006192;28;20396;-84
2022/05/21 11:02:25;;;;;;;3.40;1.20;;;;;;;;;;5006433;28;20392;-84
2022/05/21 11:05:01;;;;;;;1.90;0.83;;;;;;;;;;5008010;28;20398;-84
2022/05/21 11:07:27;;;;;;;2.27;1.20;;;;;;;;;;5006061;28;20487;-84
2022/05/21 11:09:59;;;;;;;3.30;1.00;;;;;;;;;;5006282;28;20396;-84
2022/05/21 11:12:28;;;;;;;2.13;1.07;;;;;;;;;;5005121;28;20408;-84
2022/05/21 11:14:54;;;;;;;2.80;1.13;;;;;;;;;;5007289;28;20425;-84
2022/05/21 11:17:36;;;;;;;1.77;1.03;;;;;;;;;;5004183;28;20475;-83
2022/05/21 11:20:04;;;;;;;2.90;1.20;;;;;;;;;;4998368;28;20396;-82
2022/05/21 11:22:42;;;;;;;2.77;1.03;;;;;;;;;;4998072;28;20393;-82
2022/05/21 11:25:14;;;;;;;1.87;1.00;;;;;;;;;;4999782;28;20511;-83
2022/05/21 11:27:50;;;;;;;2.70;0.90;;;;;;;;;;5002528;28;20400;-83
2022/05/21 11:30:21;;;;;;;5.60;1.10;;;;;;;;;;5003257;28;20405;-83
2022/05/21 11:38:28;;;;;;;1.93;1.10;;;;;;;;;;5023361;28;20503;-82
2022/05/21 11:43:54;;;;;;;1.70;0.93;;;;;;;;;;5015415;28;20459;-85
2022/05/21 11:46:20;;;;;;;1.90;0.90;;;;;;;;;;5021731;28;20448;-84
2022/05/21 11:48:50;;;;;;;2.57;1.50;;;;;;;;;;5015258;28;20404;-85
2022/05/21 11:51:19;;;;;;;2.33;1.27;;;;;;;;;;5012867;28;20412;-86
2022/05/21 11:53:46;;;;;;;1.70;1.00;;;;;;;;;;4993710;28;20510;-86
2022/05/21 11:56:13;;;;;;;9.03;1.43;;;;;;;;;;5010200;28;20428;-85
2022/05/21 11:58:58;;;;;;;1.90;1.07;;;;;;;;;;5014355;28;20436;-86
2022/05/21 12:01:39;;;;;;;1.70;1.10;;;;;;;;;;5011070;28;20407;-86
2022/05/21 12:04:06;;;;;;;2.27;0.90;;;;;;;;;;5023340;28;20420;-86
2022/05/21 12:06:39;;;;;;;1.90;0.80;;;;;;;;;;5016633;28;20457;-88
2022/05/21 12:09:26;;;;;;;3.57;1.03;;;;;;;;;;5022287;28;20897;-86
2022/05/21 12:11:52;;;;;;;2.23;0.80;;;;;;;;;;5018685;28;20506;-86
2022/05/21 12:14:25;;;;;;;4.60;1.10;;;;;;;;;;5019183;28;20455;-86
2022/05/21 12:16:59;;;;;;;1.70;0.90;;;;;;;;;;5008317;28;20439;-86
2022/05/21 12:19:44;;;;;;;2.20;1.00;;;;;;;;;;4997900;28;20477;-86
2022/05/21 12:22:11;;;;;;;1.93;1.17;;;;;;;;;;5008040;28;20412;-85
2022/05/21 12:24:39;;;;;;;1.80;1.00;;;;;;;;;;5007964;28;20440;-85
2022/05/21 12:27:24;;;;;;;3.23;1.07;;;;;;;;;;5010026;28;20438;-83
2022/05/21 12:30:10;;;;;;;1.90;0.97;;;;;;;;;;5011614;28;20408;-85
2022/05/21 12:32:39;;;;;;;1.50;0.90;;;;;;;;;;5007744;28;20463;-84
2022/05/21 12:35:25;;;;;;;2.27;1.13;;;;;;;;;;5008643;28;20456;-84
2022/05/21 12:38:07;;;;;;;1.70;0.80;;;;;;;;;;5007553;28;20487;-84
2022/05/21 12:40:52;;;;;;;1.90;0.90;;;;;;;;;;4988818;28;20789;-86
2022/05/21 12:43:18;;;;;;;1.50;0.70;;;;;;;;;;4990261;28;20412;-85
2022/05/21 12:45:48;;;;;;;4.27;1.17;;;;;;;;;;5007745;28;20432;-86
2022/05/21 12:48:24;;;;;;;1.40;0.77;;;;;;;;;;5008115;28;20418;-85
2022/05/21 12:50:58;;;;;;;2.00;0.90;;;;;;;;;;5007310;28;20432;-85
2022/05/21 12:53:24;;;;;;;3.00;0.80;;;;;;;;;;5008125;28;20452;-85
2022/05/21 12:56:13;;;;;;;1.70;0.80;;;;;;;;;;5008039;28;20435;-84
2022/05/21 12:58:40;;;;;;;5.10;1.33;;;;;;;;;;4995580;28;20535;-86
2022/05/21 13:01:06;;;;;;;3.97;2.00;;;;;;;;;;5007965;28;20392;-86
2022/05/21 13:03:39;;;;;;;2.50;1.73;;;;;;;;;;5007017;28;20889;-86
2022/05/21 13:06:09;;;;;;;2.30;1.50;;;;;;;;;;5007810;28;20519;-85
2022/05/21 13:08:37;;;;;;;2.30;1.13;;;;;;;;;;5007331;28;20444;-84
2022/05/21 13:11:05;;;;;;;3.20;1.23;;;;;;;;;;5007983;28;20419;-84
2022/05/21 13:13:39;;;;;;;2.03;1.00;;;;;;;;;;5008619;28;20487;-85
2022/05/21 13:16:06;;;;;;;2.10;1.03;;;;;;;;;;5009992;28;20947;-83
2022/05/21 13:18:46;;;;;;;3.50;1.20;;;;;;;;;;5010539;28;20408;-86
2022/05/21 13:21:12;;;;;;;3.37;1.10;;;;;;;;;;5018396;28;20388;-86
2022/05/21 13:23:52;;;;;;;2.70;1.30;;;;;;;;;;5024281;28;20428;-85
2022/05/21 13:26:21;;;;;;;2.23;1.07;;;;;;;;;;5008149;28;20427;-85
2022/05/21 13:28:47;;;;;;;1.50;0.90;;;;;;;;;;5008154;28;20494;-86
2022/05/21 13:31:21;;;;;;;3.40;1.40;;;;;;;;;;4989919;28;20542;-85
2022/05/21 13:33:52;;;;;;;2.73;0.90;;;;;;;;;;5011607;28;20444;-86
2022/05/21 13:36:24;;;;;;;3.30;1.17;;;;;;;;;;5014703;28;20468;-86
2022/05/21 13:38:52;;;;;;;4.03;1.50;;;;;;;;;;5017878;28;20435;-85
2022/05/21 13:41:26;;;;;;;1.50;0.80;;;;;;;;;;5022835;28;20420;-85
2022/05/21 13:43:54;;;;;;;2.13;1.20;;;;;;;;;;5027120;28;20884;-86
2022/05/21 13:46:31;;;;;;;2.00;1.00;;;;;;;;;;5025711;28;20963;-85
2022/05/21 13:48:58;;;;;;;2.63;1.37;;;;;;;;;;5016315;28;20442;-84
2022/05/21 13:51:25;;;;;;;3.40;1.10;;;;;;;;;;5024165;28;20424;-84
2022/05/21 13:53:52;;;;;;;3.27;1.30;;;;;;;;;;5008478;28;20470;-86
2022/05/21 13:56:27;;;;;;;1.77;1.00;;;;;;;;;;5020284;28;20443;-85
2022/05/21 13:59:12;;;;;;;3.00;1.50;;;;;;;;;;5020114;28;20420;-84
2022/05/21 14:01:39;;;;;;;1.87;1.00;;;;;;;;;;5008305;28;20402;-85
2022/05/21 14:04:06;;;;;;;3.77;1.17;;;;;;;;;;5016023;28;20450;-85
2022/05/21 14:06:34;;;;;;;2.63;1.50;;;;;;;;;;5010913;28;20991;-83
2022/05/21 14:09:01;;;;;;;1.73;1.10;;;;;;;;;;5004760;28;20407;-83
2022/05/21 14:11:28;;;;;;;2.07;1.13;;;;;;;;;;5008218;28;20416;-84
2022/05/21 14:13:54;;;;;;;2.33;1.70;;;;;;;;;;5011527;28;20456;-85
2022/05/21 14:16:37;;;;;;;3.43;1.03;;;;;;;;;;4993392;28;20515;-84
2022/05/21 14:19:06;;;;;;;4.20;1.30;;;;;;;;;;5004446;28;20404;-82
2022/05/21 14:21:33;;;;;;;2.90;1.43;;;;;;;;;;5004583;28;20419;-84
2022/05/21 14:24:07;;;;;;;3.47;1.40;;;;;;;;;;5017597;28;20420;-84
2022/05/21 14:26:34;;;;;;;2.57;1.90;;;;;;;;;;5017432;28;20443;-84
2022/05/21 14:29:01;;;;;;;3.20;1.10;;;;;;;;;;5031658;28;20415;-85
2022/05/21 14:31:32;;;;;;;8.60;6.87;;;;;;;;;;5032325;28;20419;-82
2022/05/21 14:33:59;;;;;;;2.50;1.10;;;;;;;;;;4992289;28;20953;-82
2022/05/21 14:36:35;;;;;;;3.50;1.40;;;;;;;;;;4986391;28;20457;-83
2022/05/21 14:39:01;;;;;;;2.57;1.60;;;;;;;;;;5018964;28;20650;-83
2022/05/21 14:41:30;;;;;;;3.60;2.90;;;;;;;;;;5010792;28;20413;-86
2022/05/21 14:43:57;;;;;;;1.90;1.20;;;;;;;;;;5011335;28;20416;-84
2022/05/21 14:49:08;;;;;;;2.70;1.00;;;;;;;;;;5009281;28;20399;-85
2022/05/21 14:54:22;;;;;;;1.90;1.00;;;;;;;;;;4998374;28;20467;-85
2022/05/21 14:56:48;;;;;;;3.30;1.30;;;;;;;;;;4990940;28;20488;-85
2022/05/21 14:59:15;;;;;;;4.83;2.17;;;;;;;;;;5010422;28;20416;-85
2022/05/21 15:01:41;;;;;;;1.70;0.90;;;;;;;;;;4995439;28;20409;-85
2022/05/21 15:04:08;;;;;;;2.60;1.50;;;;;;;;;;5008380;28;20932;-84
2022/05/21 15:06:35;;;;;;;2.27;1.00;;;;;;;;;;4998232;28;20432;-85
2022/05/21 15:09:03;;;;;;;4.03;1.00;;;;;;;;;;5001798;28;20420;-85
2022/05/21 15:11:29;;;;;;;2.40;1.10;;;;;;;;;;5004179;28;20420;-84
2022/05/21 15:13:55;;;;;;;2.83;1.10;;;;;;;;;;5005020;28;20466;-84
2022/05/21 15:16:21;;;;;;;2.87;2.60;;;;;;;;;;5006746;28;20435;-85
2022/05/21 15:18:48;;;;;;;1.97;0.87;;;;;;;;;;5008188;28;20404;-84
2022/05/21 15:21:18;;;;;;;3.23;1.10;;;;;;;;;;4994509;28;20424;-84
2022/05/21 15:23:44;;;;;;;2.10;1.10;;;;;;;;;;5002841;28;20416;-84
2022/05/21 15:26:10;;;;;;;2.03;1.10;;;;;;;;;;5004823;28;20440;-85
2022/05/21 15:28:38;;;;;;;2.17;1.20;;;;;;;;;;5011073;28;20412;-83
2022/05/21 15:31:05;;;;;;;2.23;0.90;;;;;;;;;;5001658;28;20412;-83